Time;durP1;ratioP1;P1;durP2;ratioP2;P2;SDS_P1;SDS_P2;PMS_P1;PMS_P2;Temp;Humidity;BMP_temperature;BMP_pressure;BME280_temperature;BME280_humidity;BME280_pressure;Samples;Min_cycle;Max_cycle;Signal;HPM_P1;HPM_P2
2023/01/19 00:00:16;;;;;;;13.00;7.07;;;1.00;29.80;;;;;;6032925;23;20420;-70
2023/01/19 00:02:46;;;;;;;13.33;7.73;;;0.90;29.90;;;;;;6033302;23;20916;-70
2023/01/19 00:05:13;;;;;;;12.73;7.50;;;0.90;29.80;;;;;;6034317;23;20428;-72
2023/01/19 00:07:40;;;;;;;14.60;7.90;;;0.80;29.80;;;;;;6035167;23;20424;-70
2023/01/19 00:10:08;;;;;;;15.07;9.00;;;0.80;29.80;;;;;;6033096;23;20444;-70
2023/01/19 00:12:35;;;;;;;16.17;8.90;;;0.80;29.80;;;;;;6033262;23;20448;-70
2023/01/19 00:15:03;;;;;;;13.40;7.47;;;0.80;29.90;;;;;;6033728;23;20427;-69
2023/01/19 00:17:30;;;;;;;13.07;7.83;;;0.70;29.90;;;;;;6033477;23;20939;-69
2023/01/19 00:19:57;;;;;;;13.90;8.60;;;0.70;30.00;;;;;;6033980;23;20426;-70
2023/01/19 00:22:23;;;;;;;15.10;8.47;;;0.70;30.10;;;;;;6033010;23;20440;-69
2023/01/19 00:24:50;;;;;;;13.90;7.33;;;0.70;30.10;;;;;;6034526;23;20428;-69
2023/01/19 00:27:17;;;;;;;13.77;8.13;;;0.70;30.10;;;;;;6034312;23;20428;-69
2023/01/19 00:29:43;;;;;;;13.30;7.70;;;0.70;30.20;;;;;;6033655;23;20794;-70
2023/01/19 00:32:11;;;;;;;17.00;9.30;;;0.70;30.20;;;;;;6032410;23;20440;-69
2023/01/19 00:34:48;;;;;;;11.13;7.73;;;0.70;30.30;;;;;;6034305;23;20420;-70
2023/01/19 00:37:15;;;;;;;12.20;7.80;;;0.70;30.30;;;;;;6034662;23;20693;-70
2023/01/19 00:39:42;;;;;;;15.13;8.27;;;0.70;30.30;;;;;;6034126;23;20420;-70
2023/01/19 00:44:55;;;;;;;14.17;8.47;;;0.70;30.30;;;;;;6043158;23;20398;-70
2023/01/19 00:47:24;;;;;;;11.10;7.60;;;0.60;30.30;;;;;;6034380;23;20428;-69
2023/01/19 00:49:50;;;;;;;13.87;8.47;;;0.60;30.20;;;;;;6034035;23;20451;-69
2023/01/19 00:52:17;;;;;;;14.40;8.00;;;0.60;30.30;;;;;;6033237;23;20424;-70
2023/01/19 00:54:44;;;;;;;12.37;8.40;;;0.60;30.30;;;;;;6034069;23;20456;-69
2023/01/19 00:57:11;;;;;;;13.40;7.97;;;0.50;30.20;;;;;;6033807;23;21151;-70
2023/01/19 00:59:37;;;;;;;14.60;8.10;;;0.50;30.20;;;;;;6033976;23;20452;-70
2023/01/19 01:02:04;;;;;;;12.87;8.20;;;0.50;30.20;;;;;;6032288;23;20446;-70
2023/01/19 01:04:32;;;;;;;14.57;9.53;;;0.50;30.10;;;;;;6033274;23;20427;-70
2023/01/19 01:06:59;;;;;;;16.70;9.37;;;0.40;30.10;;;;;;6032775;23;20424;-70
2023/01/19 01:09:26;;;;;;;14.97;9.30;;;0.40;30.00;;;;;;6034691;23;20447;-70
2023/01/19 01:11:53;;;;;;;17.93;9.23;;;0.40;30.00;;;;;;6032955;23;20459;-70
2023/01/19 01:14:20;;;;;;;12.23;8.57;;;0.40;30.00;;;;;;6035583;23;20790;-70
2023/01/19 01:16:46;;;;;;;13.97;9.20;;;0.30;30.10;;;;;;6033904;23;20420;-69
2023/01/19 01:19:13;;;;;;;15.87;10.20;;;0.30;30.10;;;;;;6035839;23;20423;-69
2023/01/19 01:21:42;;;;;;;15.70;8.60;;;0.30;30.00;;;;;;6035539;23;20431;-69
2023/01/19 01:24:09;;;;;;;11.43;8.50;;;0.20;30.00;;;;;;6034971;23;20443;-70
2023/01/19 01:26:36;;;;;;;12.80;8.70;;;0.20;30.60;;;;;;6035971;23;20420;-69
2023/01/19 01:29:03;;;;;;;15.47;9.63;;;0.10;30.10;;;;;;6035325;23;20444;-70
2023/01/19 01:31:30;;;;;;;18.07;8.90;;;0.10;30.10;;;;;;6035037;23;20442;-69
2023/01/19 01:33:57;;;;;;;19.57;10.83;;;0.10;30.10;;;;;;6035911;23;20446;-70
2023/01/19 01:36:23;;;;;;;14.20;10.27;;;0.00;30.10;;;;;;6035575;23;20427;-70
2023/01/19 01:38:51;;;;;;;16.63;10.20;;;0.00;30.10;;;;;;6035604;23;20549;-70
2023/01/19 01:41:18;;;;;;;18.27;10.80;;;-0.10;30.20;;;;;;6032932;23;20423;-69
2023/01/19 01:43:48;;;;;;;17.93;10.53;;;-0.10;30.40;;;;;;6035965;23;20444;-70
2023/01/19 01:46:16;;;;;;;17.13;9.80;;;-0.10;30.50;;;;;;6033268;23;20420;-70
2023/01/19 01:48:48;;;;;;;17.00;10.37;;;-0.10;30.60;;;;;;6035488;23;20450;-69
2023/01/19 01:51:26;;;;;;;14.57;10.27;;;-0.20;31.20;;;;;;6035217;23;20405;-70
2023/01/19 01:54:05;;;;;;;20.70;11.13;;;-0.20;30.70;;;;;;6034281;23;20447;-69
2023/01/19 01:56:35;;;;;;;17.10;9.53;;;-0.20;30.80;;;;;;6035463;23;20870;-70
2023/01/19 01:59:06;;;;;;;16.77;8.90;;;-0.30;30.80;;;;;;6035506;23;20404;-69
2023/01/19 02:04:19;;;;;;;13.80;9.40;;;-0.30;30.80;;;;;;6044093;23;20842;-70
2023/01/19 02:15:04;;;;;;;14.70;9.47;;;-0.40;31.00;;;;;;6034134;23;20391;-70
2023/01/19 02:17:31;;;;;;;15.33;9.53;;;-0.40;31.00;;;;;;6033234;23;20420;-70
2023/01/19 02:19:58;;;;;;;14.67;10.03;;;-0.50;31.00;;;;;;6034460;23;20427;-70
2023/01/19 02:22:34;;;;;;;23.80;10.37;;;-0.50;31.00;;;;;;6034895;23;20440;-70
2023/01/19 02:25:03;;;;;;;25.30;10.80;;;-0.50;31.10;;;;;;6035097;23;20464;-70
2023/01/19 02:27:30;;;;;;;16.00;10.10;;;-0.50;31.10;;;;;;6034617;23;20420;-70
2023/01/19 02:29:57;;;;;;;16.13;9.63;;;-0.50;31.20;;;;;;6035294;23;20463;-70
2023/01/19 02:32:24;;;;;;;16.30;10.00;;;-0.50;31.20;;;;;;6033184;23;20443;-70
2023/01/19 02:34:52;;;;;;;20.53;10.67;;;-0.50;31.20;;;;;;6044424;23;20889;-70
2023/01/19 02:37:19;;;;;;;18.57;10.40;;;-0.60;31.10;;;;;;6034061;23;20424;-69
2023/01/19 02:39:51;;;;;;;15.50;9.00;;;-0.60;31.10;;;;;;6034496;23;20420;-69
2023/01/19 02:42:24;;;;;;;18.07;10.00;;;-0.60;31.10;;;;;;6034570;23;20445;-70
2023/01/19 02:44:52;;;;;;;18.77;9.73;;;-0.60;31.20;;;;;;6034997;23;20411;-70
2023/01/19 02:47:19;;;;;;;16.63;9.77;;;-0.60;31.20;;;;;;6034792;23;20757;-70
2023/01/19 02:49:54;;;;;;;14.17;9.43;;;-0.60;31.30;;;;;;6034662;23;20444;-70
2023/01/19 02:52:21;;;;;;;15.23;10.10;;;-0.60;31.90;;;;;;6034640;23;20444;-70
2023/01/19 02:55:01;;;;;;;16.90;9.40;;;-0.60;31.20;;;;;;6034037;23;20765;-70
2023/01/19 02:57:47;;;;;;;14.10;10.23;;;-0.60;31.30;;;;;;6034148;23;20408;-69
2023/01/19 03:00:25;;;;;;;17.57;9.43;;;-0.60;31.20;;;;;;6033790;23;20440;-70
2023/01/19 03:03:06;;;;;;;17.30;10.70;;;-0.60;31.10;;;;;;6034355;23;20465;-69
2023/01/19 03:05:45;;;;;;;16.80;10.43;;;-0.60;31.20;;;;;;6034827;23;20412;-70
2023/01/19 03:08:16;;;;;;;15.30;10.50;;;-0.70;31.30;;;;;;6035034;23;20410;-70
2023/01/19 03:10:51;;;;;;;15.90;9.70;;;-0.70;31.30;;;;;;6034583;23;20432;-70
2023/01/19 03:13:27;;;;;;;15.30;10.73;;;-0.70;31.30;;;;;;6035195;23;20451;-69
2023/01/19 03:15:58;;;;;;;19.63;10.20;;;-0.70;31.40;;;;;;6035235;23;20415;-69
2023/01/19 03:18:28;;;;;;;17.30;11.03;;;-0.70;31.30;;;;;;6034754;23;20409;-70
2023/01/19 03:20:58;;;;;;;15.83;10.40;;;-0.70;31.40;;;;;;6034034;23;20715;-70
2023/01/19 03:23:30;;;;;;;15.47;10.07;;;-0.70;31.50;;;;;;6034651;23;20854;-70
2023/01/19 03:25:59;;;;;;;15.70;9.67;;;-0.70;31.50;;;;;;6034854;23;20413;-71
2023/01/19 03:28:30;;;;;;;14.30;8.90;;;-0.70;31.50;;;;;;6033516;23;20424;-70
2023/01/19 03:31:01;;;;;;;14.70;10.63;;;-0.80;31.50;;;;;;6034292;23;20436;-70
2023/01/19 03:33:31;;;;;;;17.43;10.47;;;-0.70;31.70;;;;;;6031107;23;20443;-70
2023/01/19 03:36:03;;;;;;;16.67;10.80;;;-0.70;31.80;;;;;;6033497;23;20834;-70
2023/01/19 03:38:35;;;;;;;19.70;10.73;;;-0.70;31.70;;;;;;6033756;23;20404;-70
2023/01/19 03:41:04;;;;;;;14.60;9.67;;;-0.70;31.60;;;;;;6033851;23;20737;-70
2023/01/19 03:43:33;;;;;;;13.70;9.17;;;-0.70;31.40;;;;;;6034511;23;20447;-70
2023/01/19 03:46:00;;;;;;;16.33;10.93;;;-0.70;31.30;;;;;;6033463;23;20420;-70
2023/01/19 03:48:27;;;;;;;18.27;10.50;;;-0.70;31.20;;;;;;6032821;23;20428;-70
2023/01/19 03:50:55;;;;;;;22.73;10.63;;;-0.70;31.20;;;;;;6033587;23;20440;-69
2023/01/19 03:53:22;;;;;;;14.63;9.80;;;-0.70;31.10;;;;;;6033929;23;20449;-70
2023/01/19 03:55:53;;;;;;;14.73;9.40;;;-0.70;31.00;;;;;;6033706;23;20432;-70
2023/01/19 03:58:20;;;;;;;16.73;11.13;;;-0.80;30.90;;;;;;6032392;23;20456;-69
2023/01/19 04:00:49;;;;;;;15.60;8.87;;;-0.80;30.80;;;;;;6040508;23;20782;-70
2023/01/19 04:03:17;;;;;;;15.00;9.47;;;-0.80;30.70;;;;;;6033168;23;20447;-70
2023/01/19 04:05:44;;;;;;;17.90;9.63;;;-0.80;30.70;;;;;;6034293;23;20502;-70
2023/01/19 04:08:11;;;;;;;16.67;9.60;;;-0.90;30.70;;;;;;6033388;23;20428;-70
2023/01/19 04:10:38;;;;;;;18.53;10.10;;;-0.90;30.60;;;;;;6034092;23;20447;-70
2023/01/19 04:13:05;;;;;;;16.67;9.60;;;-0.90;30.70;;;;;;6033032;23;20985;-70
2023/01/19 04:15:32;;;;;;;15.10;9.00;;;-0.90;30.70;;;;;;6035000;23;20427;-70
2023/01/19 04:18:01;;;;;;;16.10;9.67;;;-0.90;30.70;;;;;;6033931;23;20431;-70
2023/01/19 04:20:28;;;;;;;14.33;8.43;;;-0.90;30.70;;;;;;6033372;23;21114;-70
2023/01/19 04:22:59;;;;;;;17.67;8.73;;;-0.90;30.70;;;;;;6033899;23;20451;-70
2023/01/19 04:25:26;;;;;;;16.53;8.77;;;-0.90;30.70;;;;;;6030872;23;20415;-70
2023/01/19 04:27:53;;;;;;;13.47;8.70;;;-0.90;30.70;;;;;;6033213;23;20511;-69
2023/01/19 04:30:21;;;;;;;12.33;8.03;;;-0.90;30.70;;;;;;6031561;23;20444;-69
2023/01/19 04:32:48;;;;;;;14.90;8.57;;;-0.90;30.70;;;;;;6033879;23;20448;-69
2023/01/19 04:35:16;;;;;;;15.87;8.40;;;-0.90;30.60;;;;;;6033249;23;20427;-69
2023/01/19 04:37:43;;;;;;;14.30;8.27;;;-0.90;30.70;;;;;;6032726;23;21158;-69
2023/01/19 04:40:11;;;;;;;14.63;8.63;;;-0.90;30.70;;;;;;6034447;23;20424;-70
2023/01/19 04:42:38;;;;;;;16.80;8.37;;;-0.90;30.60;;;;;;6033086;23;20476;-70
2023/01/19 04:45:05;;;;;;;15.33;10.17;;;-0.90;30.60;;;;;;6034103;23;20762;-70
2023/01/19 04:47:32;;;;;;;14.83;9.30;;;-0.80;30.40;;;;;;6033390;23;20424;-73
2023/01/19 04:49:59;;;;;;;18.03;8.60;;;-0.80;30.30;;;;;;6032909;23;20440;-71
2023/01/19 04:52:33;;;;;;;13.90;9.13;;;-0.90;30.60;;;;;;6033170;23;20451;-71
2023/01/19 04:55:00;;;;;;;14.67;8.53;;;-0.80;30.60;;;;;;6032290;23;20410;-71
2023/01/19 04:57:27;;;;;;;14.20;9.10;;;-0.80;30.60;;;;;;6034234;23;20424;-71
2023/01/19 04:59:53;;;;;;;11.83;7.10;;;-0.80;30.60;;;;;;6034329;23;20420;-71
2023/01/19 05:02:21;;;;;;;12.47;8.20;;;-0.80;30.60;;;;;;6030632;23;20470;-71
2023/01/19 05:04:54;;;;;;;15.30;8.63;;;-0.80;30.50;;;;;;6032790;23;20549;-71
2023/01/19 05:07:20;;;;;;;12.73;8.20;;;-0.80;30.50;;;;;;6033138;23;20427;-71
2023/01/19 05:09:48;;;;;;;15.77;9.40;;;-0.80;30.40;;;;;;6033505;23;20432;-71
2023/01/19 05:12:15;;;;;;;17.83;9.00;;;-0.80;30.40;;;;;;6031179;23;20431;-71
2023/01/19 05:14:42;;;;;;;15.10;8.77;;;-0.80;30.40;;;;;;6032953;23;20404;-71
2023/01/19 05:17:08;;;;;;;15.70;8.27;;;-0.80;30.40;;;;;;6042108;23;20419;-71
2023/01/19 05:19:35;;;;;;;15.13;8.77;;;-0.80;30.30;;;;;;6029826;23;20424;-72
2023/01/19 05:22:03;;;;;;;15.90;9.07;;;-0.80;30.10;;;;;;6030078;23;20420;-71
2023/01/19 05:24:30;;;;;;;12.73;9.27;;;-0.80;30.10;;;;;;6032601;23;20424;-71
2023/01/19 05:26:58;;;;;;;17.97;9.40;;;-0.80;30.20;;;;;;6031835;23;20922;-72
2023/01/19 05:29:25;;;;;;;19.70;9.37;;;-0.80;30.20;;;;;;6033587;23;20443;-71
2023/01/19 05:31:52;;;;;;;15.00;8.67;;;-0.80;30.20;;;;;;6028927;23;20444;-71
2023/01/19 05:34:19;;;;;;;17.03;9.53;;;-0.80;30.20;;;;;;6032436;23;20444;-72
2023/01/19 05:36:46;;;;;;;15.40;9.37;;;-0.80;30.20;;;;;;6030335;23;21065;-74
2023/01/19 05:39:13;;;;;;;15.90;9.10;;;-0.80;30.00;;;;;;6029958;23;20428;-70
2023/01/19 05:41:40;;;;;;;15.57;8.43;;;-0.80;30.00;;;;;;6032029;23;20423;-78
2023/01/19 05:44:09;;;;;;;16.00;8.50;;;-0.90;30.10;;;;;;6032612;23;21313;-79
2023/01/19 05:46:36;;;;;;;15.73;9.77;;;-0.90;30.20;;;;;;6033072;23;20427;-76
2023/01/19 05:49:03;;;;;;;14.97;9.73;;;-1.00;30.10;;;;;;6033397;23;20427;-76
2023/01/19 05:51:34;;;;;;;15.63;10.27;;;-1.00;30.20;;;;;;6032742;23;20447;-72
2023/01/19 05:54:00;;;;;;;17.77;10.70;;;-1.00;30.20;;;;;;6034320;23;20440;-73
2023/01/19 05:56:27;;;;;;;14.40;9.70;;;-1.00;30.20;;;;;;6035603;23;20424;-74
2023/01/19 05:58:54;;;;;;;18.43;10.43;;;-1.10;30.20;;;;;;6035613;23;20431;-74
2023/01/19 06:01:22;;;;;;;14.60;9.13;;;-1.10;30.30;;;;;;6031991;23;20439;-74
2023/01/19 06:03:49;;;;;;;14.90;9.70;;;-1.00;30.30;;;;;;6033743;23;20838;-75
2023/01/19 06:06:16;;;;;;;15.27;9.40;;;-1.10;30.20;;;;;;6032943;23;20420;-76
2023/01/19 06:08:43;;;;;;;14.67;9.43;;;-1.10;30.20;;;;;;6034972;23;20428;-76
2023/01/19 06:11:10;;;;;;;15.53;10.07;;;-1.20;30.20;;;;;;6031304;23;20443;-75
2023/01/19 06:13:38;;;;;;;21.50;11.13;;;-1.10;30.30;;;;;;6034956;23;20454;-75
2023/01/19 06:16:07;;;;;;;15.73;10.67;;;-1.20;30.30;;;;;;6034021;23;20444;-77
2023/01/19 06:18:35;;;;;;;16.67;10.27;;;-1.20;30.30;;;;;;6034243;23;20424;-75
2023/01/19 06:21:06;;;;;;;17.23;9.73;;;-1.20;30.40;;;;;;6032472;23;20423;-71
2023/01/19 06:23:34;;;;;;;18.00;10.23;;;-1.30;30.70;;;;;;6033180;23;20474;-71
2023/01/19 06:26:01;;;;;;;16.90;11.17;;;-1.20;30.80;;;;;;6030282;23;20424;-72
2023/01/19 06:28:28;;;;;;;19.70;10.53;;;-1.30;30.80;;;;;;6034155;23;20434;-72
2023/01/19 06:30:56;;;;;;;14.70;9.20;;;-1.30;30.90;;;;;;6032546;23;20526;-71
2023/01/19 06:33:23;;;;;;;15.03;10.10;;;-1.30;30.90;;;;;;6033289;23;20698;-72
2023/01/19 06:35:51;;;;;;;15.23;9.97;;;-1.30;31.10;;;;;;6034197;23;20420;-72
2023/01/19 06:38:18;;;;;;;20.33;11.07;;;-1.30;31.20;;;;;;6035595;23;20434;-72
2023/01/19 06:40:46;;;;;;;18.30;11.57;;;-1.30;31.30;;;;;;6035564;23;20420;-72
2023/01/19 06:43:12;;;;;;;20.47;11.07;;;-1.30;31.50;;;;;;6033946;23;20454;-72
2023/01/19 06:45:39;;;;;;;20.80;12.03;;;-1.30;31.60;;;;;;6033795;23;20753;-72
2023/01/19 06:48:06;;;;;;;17.30;10.97;;;-1.30;32.20;;;;;;6034859;23;20420;-71
2023/01/19 06:50:33;;;;;;;17.13;11.57;;;-1.30;31.60;;;;;;6034035;23;20440;-71
2023/01/19 06:53:01;;;;;;;16.27;9.93;;;-1.30;31.60;;;;;;6033914;23;20450;-71
2023/01/19 06:55:28;;;;;;;17.20;10.57;;;-1.30;31.60;;;;;;6033308;23;20459;-71
2023/01/19 06:57:58;;;;;;;18.57;10.77;;;-1.30;31.50;;;;;;6033306;23;20420;-69
2023/01/19 07:00:25;;;;;;;23.03;11.50;;;-1.30;31.50;;;;;;6031492;23;20440;-69
2023/01/19 07:02:52;;;;;;;21.67;11.90;;;-1.30;31.40;;;;;;6031043;23;20435;-68
2023/01/19 07:05:20;;;;;;;18.80;11.30;;;-1.30;31.40;;;;;;6032380;23;20426;-71
2023/01/19 07:07:51;;;;;;;16.70;9.90;;;-1.30;31.40;;;;;;6032086;23;20943;-67
2023/01/19 07:10:20;;;;;;;17.17;10.07;;;-1.30;31.40;;;;;;6031779;23;20941;-67
2023/01/19 07:12:47;;;;;;;20.87;12.90;;;-1.30;31.40;;;;;;6031472;23;20538;-69
2023/01/19 07:15:14;;;;;;;18.00;12.17;;;-1.30;31.60;;;;;;6032954;23;20434;-69
2023/01/19 07:17:41;;;;;;;19.80;11.73;;;-1.30;31.70;;;;;;6034158;23;20422;-69
2023/01/19 07:20:11;;;;;;;20.43;12.60;;;-1.30;31.70;;;;;;6034749;23;20452;-67
2023/01/19 07:22:38;;;;;;;24.30;11.93;;;-1.30;31.70;;;;;;6032935;23;20507;-69
2023/01/19 07:25:06;;;;;;;20.50;12.40;;;-1.30;31.60;;;;;;6043781;23;21004;-68
2023/01/19 07:27:34;;;;;;;20.90;12.60;;;-1.20;31.50;;;;;;6034594;23;20866;-70
2023/01/19 07:30:01;;;;;;;17.87;12.77;;;-1.30;31.50;;;;;;6032088;23;20901;-69
2023/01/19 07:32:28;;;;;;;18.20;12.13;;;-1.20;31.40;;;;;;6030322;23;20451;-68
2023/01/19 07:34:55;;;;;;;18.57;12.03;;;-1.20;31.30;;;;;;6033767;23;20490;-71
2023/01/19 07:37:22;;;;;;;20.67;12.77;;;-1.10;31.30;;;;;;6031612;23;21026;-70
2023/01/19 07:39:48;;;;;;;18.53;11.80;;;-1.10;31.20;;;;;;6033797;23;20424;-69
2023/01/19 07:42:15;;;;;;;17.97;10.73;;;-1.00;31.10;;;;;;6029691;23;20439;-70
2023/01/19 07:44:43;;;;;;;17.17;11.53;;;-1.00;31.00;;;;;;6033483;23;21066;-68
2023/01/19 07:47:11;;;;;;;17.53;10.73;;;-0.90;30.90;;;;;;6034553;23;20427;-68
2023/01/19 07:49:38;;;;;;;16.00;10.90;;;-0.80;30.50;;;;;;6034760;23;20447;-70
2023/01/19 07:52:05;;;;;;;20.60;11.47;;;-0.70;30.30;;;;;;6034415;23;20449;-70
2023/01/19 07:54:32;;;;;;;21.23;12.57;;;-0.50;30.10;;;;;;6034075;23;20798;-70
2023/01/19 07:56:59;;;;;;;16.13;11.40;;;-0.20;29.50;;;;;;6034984;23;20429;-68
2023/01/19 07:59:26;;;;;;;18.93;11.27;;;0.20;28.50;;;;;;6034701;23;20420;-68
2023/01/19 08:01:54;;;;;;;18.10;12.07;;;0.80;27.30;;;;;;6034231;23;20436;-69
2023/01/19 08:04:21;;;;;;;17.63;11.73;;;1.30;26.10;;;;;;6033697;23;20941;-68
2023/01/19 08:06:47;;;;;;;18.70;11.23;;;1.60;25.20;;;;;;6030592;23;20947;-66
2023/01/19 08:09:14;;;;;;;15.80;10.20;;;2.00;24.30;;;;;;6034363;23;20428;-68
2023/01/19 08:11:41;;;;;;;21.03;12.03;;;2.40;23.10;;;;;;6026555;23;20440;-66
2023/01/19 08:14:08;;;;;;;18.23;11.50;;;2.90;22.10;;;;;;6030903;23;20455;-65
2023/01/19 08:16:34;;;;;;;14.87;9.97;;;3.50;21.10;;;;;;6028508;23;20431;-67
2023/01/19 08:19:03;;;;;;;15.07;9.73;;;4.10;19.20;;;;;;6041206;23;21035;-66
2023/01/19 08:21:30;;;;;;;17.30;11.10;;;4.50;18.50;;;;;;6031445;23;20416;-66
2023/01/19 08:23:57;;;;;;;14.90;9.63;;;4.70;17.90;;;;;;6031338;23;20523;-73
2023/01/19 08:26:28;;;;;;;15.60;10.63;;;4.80;17.60;;;;;;6024894;23;20420;-72
2023/01/19 08:28:56;;;;;;;17.23;11.27;;;5.10;16.70;;;;;;6029698;23;20821;-70
2023/01/19 08:31:23;;;;;;;14.80;12.03;;;5.40;16.10;;;;;;6027654;23;20448;-61
2023/01/19 08:33:50;;;;;;;12.83;10.07;;;5.80;16.00;;;;;;6033004;23;20506;-63
2023/01/19 08:36:19;;;;;;;15.43;10.60;;;6.10;15.30;;;;;;6029360;23;20420;-60
2023/01/19 08:38:46;;;;;;;15.10;9.90;;;6.10;14.50;;;;;;6032095;23;20434;-60
2023/01/19 08:41:15;;;;;;;17.07;10.90;;;6.10;14.50;;;;;;6033579;23;20424;-60
2023/01/19 08:43:42;;;;;;;15.90;9.87;;;6.00;14.50;;;;;;6031817;23;20443;-61
2023/01/19 08:46:08;;;;;;;15.10;11.10;;;6.00;14.30;;;;;;6032936;23;20431;-61
2023/01/19 08:48:35;;;;;;;16.93;10.50;;;6.00;14.70;;;;;;6033379;23;20753;-61
2023/01/19 08:51:02;;;;;;;14.43;10.27;;;6.10;14.70;;;;;;6032925;23;20441;-61
2023/01/19 08:53:30;;;;;;;13.93;10.70;;;6.20;14.70;;;;;;6032949;23;20455;-61
2023/01/19 08:55:58;;;;;;;16.63;10.80;;;6.30;14.40;;;;;;6028809;23;20590;-61
2023/01/19 08:58:25;;;;;;;16.30;11.57;;;6.50;14.00;;;;;;6032601;23;20420;-61
2023/01/19 09:00:53;;;;;;;16.00;10.50;;;6.70;12.90;;;;;;6032789;23;20436;-70
2023/01/19 09:03:21;;;;;;;16.17;11.13;;;6.80;13.00;;;;;;6031199;23;20439;-71
2023/01/19 09:05:48;;;;;;;16.17;11.10;;;6.90;12.20;;;;;;6028749;23;20432;-70
2023/01/19 09:08:15;;;;;;;16.77;11.77;;;6.90;12.10;;;;;;6033692;23;20424;-73
2023/01/19 09:10:47;;;;;;;16.80;11.50;;;7.20;11.70;;;;;;6031335;23;20420;-70
2023/01/19 09:13:14;;;;;;;15.90;11.47;;;7.60;11.20;;;;;;6032904;23;20448;-70
2023/01/19 09:15:42;;;;;;;15.47;11.80;;;7.90;10.60;;;;;;6033045;23;20424;-71
2023/01/19 09:18:12;;;;;;;15.40;11.33;;;7.90;10.30;;;;;;6032251;23;20424;-73
2023/01/19 09:20:41;;;;;;;17.43;11.73;;;7.90;10.10;;;;;;6033995;23;20517;-71
2023/01/19 09:23:09;;;;;;;16.83;12.43;;;7.70;10.10;;;;;;6030254;23;20440;-69
2023/01/19 09:25:36;;;;;;;15.23;10.80;;;7.60;10.10;;;;;;6032128;23;20430;-72
2023/01/19 09:28:04;;;;;;;14.53;10.30;;;7.50;10.40;;;;;;6031261;23;20424;-71
2023/01/19 09:30:32;;;;;;;14.10;10.03;;;7.60;10.40;;;;;;6032563;23;20424;-71
2023/01/19 09:33:03;;;;;;;13.27;10.70;;;7.80;10.20;;;;;;6032954;23;20452;-75
2023/01/19 09:35:30;;;;;;;15.90;11.30;;;8.30;9.60;;;;;;6034343;23;20466;-77
2023/01/19 09:37:57;;;;;;;16.47;10.77;;;8.60;9.00;;;;;;6034833;23;20416;-77
2023/01/19 09:40:24;;;;;;;15.53;11.50;;;8.80;8.50;;;;;;6034856;23;20476;-76
2023/01/19 09:42:58;;;;;;;14.87;10.67;;;9.00;8.30;;;;;;6035389;23;20439;-77
2023/01/19 09:45:34;;;;;;;15.43;9.97;;;9.30;7.90;;;;;;6033136;23;20492;-77
2023/01/19 09:48:02;;;;;;;15.10;11.33;;;9.30;7.60;;;;;;6033841;23;20404;-77
2023/01/19 09:50:35;;;;;;;15.03;10.70;;;9.30;7.00;;;;;;6032293;23;20809;-77
2023/01/19 09:53:06;;;;;;;15.20;10.87;;;9.10;7.50;;;;;;6033768;23;20479;-77
2023/01/19 09:55:33;;;;;;;14.77;10.80;;;9.00;7.70;;;;;;6035006;23;20460;-77
2023/01/19 09:58:00;;;;;;;15.20;10.40;;;9.10;7.70;;;;;;6034150;23;20431;-77
2023/01/19 10:00:30;;;;;;;14.90;10.27;;;9.10;7.50;;;;;;6034044;23;21106;-77
2023/01/19 10:03:02;;;;;;;16.63;10.00;;;9.20;7.40;;;;;;6033882;23;20964;-70
2023/01/19 10:05:32;;;;;;;13.50;9.20;;;9.20;7.50;;;;;;6034876;23;20412;-72
2023/01/19 10:08:10;;;;;;;16.60;10.23;;;9.30;7.10;;;;;;6033592;23;20420;-72
2023/01/19 10:10:41;;;;;;;16.03;9.97;;;9.30;7.10;;;;;;6033709;23;20898;-71
2023/01/19 10:13:25;;;;;;;14.20;8.83;;;9.30;6.80;;;;;;6034250;23;20531;-70
2023/01/19 10:16:11;;;;;;;15.47;9.57;;;9.30;7.00;;;;;;6034511;23;20480;-74
2023/01/19 10:18:46;;;;;;;13.30;10.47;;;9.50;7.10;;;;;;6033822;23;20411;-71
2023/01/19 10:21:17;;;;;;;14.67;9.90;;;9.60;6.90;;;;;;6034541;23;20467;-75
2023/01/19 10:23:48;;;;;;;17.03;10.67;;;9.90;6.60;;;;;;6033482;23;20447;-74
2023/01/19 10:26:18;;;;;;;16.20;10.50;;;10.10;6.50;;;;;;6035372;23;20791;-71
2023/01/19 10:28:46;;;;;;;15.70;9.40;;;10.30;5.90;;;;;;6034863;23;20420;-73
2023/01/19 10:31:18;;;;;;;14.70;10.07;;;10.50;5.60;;;;;;6033251;23;20463;-76
2023/01/19 10:33:45;;;;;;;13.77;9.87;;;10.80;5.60;;;;;;6031703;23;20468;-72
2023/01/19 10:36:18;;;;;;;14.00;9.60;;;10.90;5.00;;;;;;6031038;23;20424;-72
2023/01/19 10:38:45;;;;;;;13.70;9.50;;;10.70;4.80;;;;;;6031334;23;20404;-72
2023/01/19 10:41:17;;;;;;;13.80;11.30;;;10.40;5.00;;;;;;6030073;23;20930;-72
2023/01/19 10:43:45;;;;;;;16.43;10.03;;;10.20;5.50;;;;;;6034650;23;20440;-72
2023/01/19 10:46:22;;;;;;;13.70;10.20;;;9.80;5.60;;;;;;6033350;23;20427;-72
2023/01/19 10:48:52;;;;;;;12.63;9.83;;;9.60;6.60;;;;;;6031864;23;20408;-71
2023/01/19 10:51:19;;;;;;;16.27;10.17;;;9.20;6.90;;;;;;6033398;23;20420;-71
2023/01/19 10:54:00;;;;;;;18.00;10.33;;;8.90;7.40;;;;;;6034419;23;20734;-72
2023/01/19 10:56:32;;;;;;;13.20;9.03;;;8.50;7.60;;;;;;6032461;23;21187;-72
2023/01/19 10:59:00;;;;;;;13.30;9.40;;;8.20;8.50;;;;;;6031831;23;20715;-72
2023/01/19 11:01:29;;;;;;;14.40;9.33;;;7.90;8.80;;;;;;6030982;23;20440;-73
2023/01/19 11:04:04;;;;;;;15.00;9.40;;;7.70;9.40;;;;;;6034009;23;20818;-72
2023/01/19 11:06:32;;;;;;;14.50;9.87;;;7.60;9.20;;;;;;6034132;23;20403;-73
2023/01/19 11:09:17;;;;;;;13.30;9.50;;;7.50;9.70;;;;;;6029496;23;20424;-73
2023/01/19 11:11:47;;;;;;;14.70;9.87;;;7.40;10.30;;;;;;6028402;23;20746;-70
2023/01/19 11:14:18;;;;;;;13.80;9.77;;;7.90;11.10;;;;;;6032847;23;20543;-72
2023/01/19 11:16:49;;;;;;;12.33;8.80;;;9.00;10.10;;;;;;6034068;23;20898;-72
2023/01/19 11:19:20;;;;;;;13.03;9.33;;;10.00;8.10;;;;;;6033366;23;20428;-70
2023/01/19 11:21:47;;;;;;;12.53;8.40;;;10.10;7.00;;;;;;6032996;23;20452;-70
2023/01/19 11:24:15;;;;;;;13.40;9.23;;;10.70;6.20;;;;;;6032730;23;20464;-70
2023/01/19 11:26:45;;;;;;;13.80;9.87;;;11.00;5.70;;;;;;6033803;23;20561;-70
2023/01/19 11:29:18;;;;;;;14.33;9.63;;;10.90;5.00;;;;;;6033547;23;20405;-75
2023/01/19 11:31:47;;;;;;;12.60;7.80;;;10.90;5.10;;;;;;6031968;23;20455;-76
2023/01/19 11:34:26;;;;;;;11.03;7.13;;;10.90;4.90;;;;;;6032789;23;20440;-75
2023/01/19 11:36:58;;;;;;;12.53;8.53;;;10.90;4.80;;;;;;6034038;23;20404;-75
2023/01/19 11:39:27;;;;;;;16.47;7.50;;;11.30;3.80;;;;;;6031882;23;20420;-75
2023/01/19 11:41:56;;;;;;;12.23;8.87;;;10.80;4.00;;;;;;6029329;23;20419;-74
2023/01/19 11:44:27;;;;;;;15.90;8.90;;;10.40;5.00;;;;;;6031538;23;20495;-75
2023/01/19 11:46:58;;;;;;;12.43;7.87;;;10.50;5.50;;;;;;6034485;23;20411;-74
2023/01/19 11:49:31;;;;;;;15.77;9.17;;;11.20;4.80;;;;;;6032013;23;20412;-72
2023/01/19 11:52:04;;;;;;;13.37;9.57;;;11.50;4.50;;;;;;6036679;23;20715;-78
2023/01/19 11:54:36;;;;;;;11.80;7.37;;;12.40;3.40;;;;;;6030130;23;20464;-77
2023/01/19 11:57:12;;;;;;;12.67;8.97;;;12.60;1.90;;;;;;6031795;23;20408;-76
2023/01/19 11:59:39;;;;;;;14.30;8.93;;;12.50;1.50;;;;;;6028927;23;20419;-78
2023/01/19 12:02:23;;;;;;;12.10;8.07;;;12.00;2.00;;;;;;6026497;23;20440;-76
2023/01/19 12:04:54;;;;;;;12.27;8.60;;;12.60;2.10;;;;;;6034143;23;20489;-69
2023/01/19 12:07:26;;;;;;;12.87;9.80;;;13.20;1.30;;;;;;6058364;23;20404;-71
2023/01/19 12:09:57;;;;;;;11.70;7.60;;;13.80;1.00;;;;;;6060995;23;20411;-71
2023/01/19 12:12:29;;;;;;;12.83;8.47;;;14.10;1.00;;;;;;6061260;23;20431;-70
2023/01/19 12:15:00;;;;;;;12.10;8.90;;;13.70;1.00;;;;;;6049138;23;20946;-70
2023/01/19 12:17:31;;;;;;;13.80;9.50;;;13.00;1.00;;;;;;6030393;23;20404;-68
2023/01/19 12:20:05;;;;;;;13.00;9.87;;;12.50;1.00;;;;;;6042589;23;20850;-69
2023/01/19 12:22:40;;;;;;;16.83;11.77;;;11.80;1.40;;;;;;6027001;23;20451;-71
2023/01/19 12:25:17;;;;;;;15.67;11.13;;;11.10;2.90;;;;;;6031295;23;20443;-69
2023/01/19 12:27:45;;;;;;;12.60;9.13;;;10.60;3.20;;;;;;6030304;23;20411;-69
2023/01/19 12:30:19;;;;;;;16.17;10.00;;;10.20;4.70;;;;;;6031827;23;20899;-70
2023/01/19 12:32:47;;;;;;;11.33;8.03;;;9.80;5.10;;;;;;6030626;23;20440;-68
2023/01/19 12:35:47;;;;;;;12.50;9.20;;;9.50;5.70;;;;;;6032038;23;20449;-75
2023/01/19 12:38:38;;;;;;;14.67;9.13;;;9.20;6.20;;;;;;6033246;23;20416;-70
2023/01/19 12:41:27;;;;;;;12.70;8.57;;;9.00;6.90;;;;;;6013978;23;20420;-73
2023/01/19 12:44:21;;;;;;;13.77;9.87;;;8.70;7.20;;;;;;6032659;23;20404;-72
2023/01/19 12:46:51;;;;;;;12.63;9.33;;;8.60;7.80;;;;;;6033204;23;20579;-72
2023/01/19 12:49:26;;;;;;;13.70;8.70;;;8.90;7.50;;;;;;6033763;23;20404;-73
2023/01/19 12:52:10;;;;;;;11.77;9.17;;;9.00;7.20;;;;;;6030729;23;20455;-70
2023/01/19 12:54:40;;;;;;;12.77;8.23;;;9.00;7.10;;;;;;6031395;23;20440;-71
2023/01/19 12:57:15;;;;;;;8.20;6.23;;;8.90;7.80;;;;;;6033081;23;20420;-71
2023/01/19 12:59:43;;;;;;;11.57;7.60;;;8.70;7.70;;;;;;6033151;23;20411;-66
2023/01/19 13:02:46;;;;;;;14.50;7.20;;;8.40;7.90;;;;;;6031170;23;20447;-68